sensor_id;sensor_type;location;lat;lon;timestamp;P1;durP1;ratioP1;P2;durP2;ratioP2
10945;SDS011;5525;42.648;23.368;2023-02-03T00:07:00;3.95;;;2.17;;
10945;SDS011;5525;42.648;23.368;2023-02-03T00:09:28;5.90;;;2.25;;
10945;SDS011;5525;42.648;23.368;2023-02-03T00:11:55;3.45;;;2.40;;
10945;SDS011;5525;42.648;23.368;2023-02-03T00:14:22;2.70;;;2.33;;
10945;SDS011;5525;42.648;23.368;2023-02-03T00:16:48;4.57;;;2.30;;
10945;SDS011;5525;42.648;23.368;2023-02-03T00:19:15;3.78;;;2.80;;
10945;SDS011;5525;42.648;23.368;2023-02-03T00:21:45;4.47;;;2.50;;
10945;SDS011;5525;42.648;23.368;2023-02-03T00:24:16;4.50;;;2.70;;
10945;SDS011;5525;42.648;23.368;2023-02-03T00:26:48;3.13;;;2.63;;
10945;SDS011;5525;42.648;23.368;2023-02-03T00:29:15;3.85;;;2.42;;
10945;SDS011;5525;42.648;23.368;2023-02-03T00:31:44;3.67;;;2.78;;
10945;SDS011;5525;42.648;23.368;2023-02-03T00:34:13;4.95;;;2.83;;
10945;SDS011;5525;42.648;23.368;2023-02-03T00:36:41;5.60;;;3.13;;
10945;SDS011;5525;42.648;23.368;2023-02-03T00:39:08;5.53;;;3.10;;
10945;SDS011;5525;42.648;23.368;2023-02-03T00:41:37;3.67;;;2.85;;
10945;SDS011;5525;42.648;23.368;2023-02-03T00:44:07;4.18;;;2.90;;
10945;SDS011;5525;42.648;23.368;2023-02-03T00:46:37;4.82;;;3.35;;
10945;SDS011;5525;42.648;23.368;2023-02-03T00:49:09;3.72;;;3.20;;
10945;SDS011;5525;42.648;23.368;2023-02-03T00:51:41;3.85;;;3.00;;
10945;SDS011;5525;42.648;23.368;2023-02-03T00:54:11;4.70;;;3.40;;
10945;SDS011;5525;42.648;23.368;2023-02-03T00:56:41;4.60;;;3.83;;
10945;SDS011;5525;42.648;23.368;2023-02-03T00:59:08;3.95;;;3.30;;
10945;SDS011;5525;42.648;23.368;2023-02-03T01:01:38;3.42;;;2.97;;
10945;SDS011;5525;42.648;23.368;2023-02-03T01:04:05;4.35;;;3.47;;
10945;SDS011;5525;42.648;23.368;2023-02-03T01:06:38;5.65;;;3.75;;
10945;SDS011;5525;42.648;23.368;2023-02-03T01:09:06;3.80;;;3.15;;
10945;SDS011;5525;42.648;23.368;2023-02-03T01:11:36;4.88;;;3.17;;
10945;SDS011;5525;42.648;23.368;2023-02-03T01:14:07;4.43;;;3.05;;
10945;SDS011;5525;42.648;23.368;2023-02-03T01:16:37;3.28;;;2.90;;
10945;SDS011;5525;42.648;23.368;2023-02-03T01:19:04;4.15;;;2.92;;
10945;SDS011;5525;42.648;23.368;2023-02-03T01:21:34;3.67;;;2.83;;
10945;SDS011;5525;42.648;23.368;2023-02-03T01:24:01;2.78;;;2.58;;
10945;SDS011;5525;42.648;23.368;2023-02-03T01:26:31;3.40;;;2.72;;
10945;SDS011;5525;42.648;23.368;2023-02-03T01:29:00;2.78;;;2.42;;
10945;SDS011;5525;42.648;23.368;2023-02-03T01:31:32;4.03;;;2.50;;
10945;SDS011;5525;42.648;23.368;2023-02-03T01:34:03;2.42;;;2.00;;
10945;SDS011;5525;42.648;23.368;2023-02-03T01:36:35;3.33;;;2.50;;
10945;SDS011;5525;42.648;23.368;2023-02-03T01:39:03;3.08;;;2.10;;
10945;SDS011;5525;42.648;23.368;2023-02-03T01:41:35;2.92;;;1.80;;
10945;SDS011;5525;42.648;23.368;2023-02-03T01:47:07;3.95;;;1.73;;
10945;SDS011;5525;42.648;23.368;2023-02-03T01:49:43;1.77;;;1.58;;
10945;SDS011;5525;42.648;23.368;2023-02-03T01:52:12;2.95;;;2.10;;
10945;SDS011;5525;42.648;23.368;2023-02-03T01:54:42;3.17;;;1.70;;
10945;SDS011;5525;42.648;23.368;2023-02-03T01:57:12;2.47;;;1.98;;
10945;SDS011;5525;42.648;23.368;2023-02-03T01:59:43;2.47;;;1.65;;
10945;SDS011;5525;42.648;23.368;2023-02-03T02:02:13;2.47;;;1.77;;
10945;SDS011;5525;42.648;23.368;2023-02-03T02:04:42;1.98;;;1.77;;
10945;SDS011;5525;42.648;23.368;2023-02-03T02:07:20;2.55;;;1.73;;
10945;SDS011;5525;42.648;23.368;2023-02-03T02:09:49;2.50;;;1.90;;
10945;SDS011;5525;42.648;23.368;2023-02-03T02:12:19;2.75;;;2.10;;
10945;SDS011;5525;42.648;23.368;2023-02-03T02:14:51;2.05;;;1.88;;
10945;SDS011;5525;42.648;23.368;2023-02-03T02:17:31;1.73;;;1.63;;
10945;SDS011;5525;42.648;23.368;2023-02-03T02:23:35;2.55;;;2.13;;
10945;SDS011;5525;42.648;23.368;2023-02-03T02:26:29;2.15;;;2.03;;
10945;SDS011;5525;42.648;23.368;2023-02-03T02:29:40;2.85;;;2.05;;
10945;SDS011;5525;42.648;23.368;2023-02-03T02:32:34;3.22;;;2.20;;
10945;SDS011;5525;42.648;23.368;2023-02-03T02:35:13;2.40;;;2.20;;
10945;SDS011;5525;42.648;23.368;2023-02-03T02:37:47;2.40;;;2.20;;
10945;SDS011;5525;42.648;23.368;2023-02-03T02:40:24;2.15;;;1.80;;
10945;SDS011;5525;42.648;23.368;2023-02-03T02:43:03;3.17;;;2.42;;
10945;SDS011;5525;42.648;23.368;2023-02-03T02:45:36;3.97;;;2.38;;
10945;SDS011;5525;42.648;23.368;2023-02-03T02:48:14;4.05;;;2.30;;
10945;SDS011;5525;42.648;23.368;2023-02-03T02:50:50;3.05;;;2.40;;
10945;SDS011;5525;42.648;23.368;2023-02-03T02:53:20;3.17;;;2.22;;
10945;SDS011;5525;42.648;23.368;2023-02-03T02:55:50;2.53;;;2.30;;
10945;SDS011;5525;42.648;23.368;2023-02-03T02:58:19;3.20;;;2.33;;
10945;SDS011;5525;42.648;23.368;2023-02-03T03:00:48;2.60;;;2.30;;
10945;SDS011;5525;42.648;23.368;2023-02-03T03:03:22;2.38;;;2.00;;
10945;SDS011;5525;42.648;23.368;2023-02-03T03:05:50;2.92;;;2.17;;
10945;SDS011;5525;42.648;23.368;2023-02-03T03:08:28;3.25;;;1.77;;
10945;SDS011;5525;42.648;23.368;2023-02-03T03:11:05;3.42;;;2.38;;
10945;SDS011;5525;42.648;23.368;2023-02-03T03:13:36;3.20;;;2.30;;
10945;SDS011;5525;42.648;23.368;2023-02-03T03:16:07;3.10;;;2.20;;
10945;SDS011;5525;42.648;23.368;2023-02-03T03:18:38;2.38;;;2.03;;
10945;SDS011;5525;42.648;23.368;2023-02-03T03:21:10;3.55;;;2.45;;
10945;SDS011;5525;42.648;23.368;2023-02-03T03:23:46;4.03;;;2.22;;
10945;SDS011;5525;42.648;23.368;2023-02-03T03:26:18;3.47;;;2.50;;
10945;SDS011;5525;42.648;23.368;2023-02-03T03:28:56;2.47;;;2.20;;
10945;SDS011;5525;42.648;23.368;2023-02-03T03:31:28;3.83;;;2.20;;
10945;SDS011;5525;42.648;23.368;2023-02-03T03:34:00;2.80;;;2.15;;
10945;SDS011;5525;42.648;23.368;2023-02-03T03:36:29;2.38;;;2.17;;
10945;SDS011;5525;42.648;23.368;2023-02-03T03:39:01;2.80;;;2.40;;
10945;SDS011;5525;42.648;23.368;2023-02-03T03:41:37;3.03;;;2.30;;
10945;SDS011;5525;42.648;23.368;2023-02-03T03:44:11;2.58;;;2.08;;
10945;SDS011;5525;42.648;23.368;2023-02-03T03:46:43;2.42;;;2.17;;
10945;SDS011;5525;42.648;23.368;2023-02-03T03:49:18;2.58;;;2.03;;
10945;SDS011;5525;42.648;23.368;2023-02-03T03:51:50;2.80;;;2.13;;
10945;SDS011;5525;42.648;23.368;2023-02-03T03:54:23;2.80;;;2.00;;
10945;SDS011;5525;42.648;23.368;2023-02-03T03:56:55;3.45;;;1.98;;
10945;SDS011;5525;42.648;23.368;2023-02-03T03:59:31;2.33;;;1.88;;
10945;SDS011;5525;42.648;23.368;2023-02-03T04:02:02;3.42;;;2.05;;
10945;SDS011;5525;42.648;23.368;2023-02-03T04:04:32;2.65;;;2.15;;
10945;SDS011;5525;42.648;23.368;2023-02-03T04:07:03;1.58;;;1.48;;
10945;SDS011;5525;42.648;23.368;2023-02-03T04:09:31;2.30;;;2.08;;
10945;SDS011;5525;42.648;23.368;2023-02-03T04:12:03;2.88;;;2.30;;
10945;SDS011;5525;42.648;23.368;2023-02-03T04:14:32;3.20;;;2.13;;
10945;SDS011;5525;42.648;23.368;2023-02-03T04:17:02;2.90;;;2.40;;
10945;SDS011;5525;42.648;23.368;2023-02-03T04:19:29;3.58;;;2.63;;
10945;SDS011;5525;42.648;23.368;2023-02-03T04:21:58;3.67;;;2.47;;
10945;SDS011;5525;42.648;23.368;2023-02-03T04:24:24;4.00;;;2.20;;
10945;SDS011;5525;42.648;23.368;2023-02-03T04:26:51;5.10;;;2.40;;
10945;SDS011;5525;42.648;23.368;2023-02-03T04:29:18;2.83;;;2.53;;
10945;SDS011;5525;42.648;23.368;2023-02-03T04:31:45;2.55;;;2.13;;
10945;SDS011;5525;42.648;23.368;2023-02-03T04:34:12;3.33;;;2.20;;
10945;SDS011;5525;42.648;23.368;2023-02-03T04:36:40;3.58;;;2.30;;
10945;SDS011;5525;42.648;23.368;2023-02-03T04:39:07;2.97;;;2.60;;
10945;SDS011;5525;42.648;23.368;2023-02-03T04:41:34;3.08;;;2.30;;
10945;SDS011;5525;42.648;23.368;2023-02-03T04:44:01;4.03;;;2.30;;
10945;SDS011;5525;42.648;23.368;2023-02-03T04:46:28;4.75;;;2.78;;
10945;SDS011;5525;42.648;23.368;2023-02-03T04:48:55;4.95;;;2.80;;
10945;SDS011;5525;42.648;23.368;2023-02-03T04:51:22;2.78;;;2.47;;
10945;SDS011;5525;42.648;23.368;2023-02-03T04:53:50;2.78;;;2.20;;
10945;SDS011;5525;42.648;23.368;2023-02-03T04:56:17;3.40;;;2.10;;
10945;SDS011;5525;42.648;23.368;2023-02-03T04:58:44;2.42;;;2.17;;
10945;SDS011;5525;42.648;23.368;2023-02-03T05:01:10;3.58;;;2.60;;
10945;SDS011;5525;42.648;23.368;2023-02-03T05:03:37;5.38;;;3.22;;
10945;SDS011;5525;42.648;23.368;2023-02-03T05:06:04;4.07;;;3.22;;
10945;SDS011;5525;42.648;23.368;2023-02-03T05:08:31;2.90;;;2.50;;
10945;SDS011;5525;42.648;23.368;2023-02-03T05:11:00;3.22;;;2.75;;
10945;SDS011;5525;42.648;23.368;2023-02-03T05:13:27;5.03;;;2.88;;
10945;SDS011;5525;42.648;23.368;2023-02-03T05:15:55;3.58;;;2.63;;
10945;SDS011;5525;42.648;23.368;2023-02-03T05:18:22;3.00;;;2.72;;
10945;SDS011;5525;42.648;23.368;2023-02-03T05:20:48;4.13;;;2.90;;
10945;SDS011;5525;42.648;23.368;2023-02-03T05:23:15;4.63;;;3.05;;
10945;SDS011;5525;42.648;23.368;2023-02-03T05:25:43;4.07;;;2.60;;
10945;SDS011;5525;42.648;23.368;2023-02-03T05:28:12;6.53;;;3.10;;
10945;SDS011;5525;42.648;23.368;2023-02-03T05:30:38;3.50;;;3.08;;
10945;SDS011;5525;42.648;23.368;2023-02-03T05:33:06;3.53;;;3.00;;
10945;SDS011;5525;42.648;23.368;2023-02-03T05:35:35;6.05;;;5.55;;
10945;SDS011;5525;42.648;23.368;2023-02-03T05:38:02;4.22;;;2.92;;
10945;SDS011;5525;42.648;23.368;2023-02-03T05:40:29;3.70;;;3.30;;
10945;SDS011;5525;42.648;23.368;2023-02-03T05:43:16;5.63;;;3.25;;
10945;SDS011;5525;42.648;23.368;2023-02-03T05:45:44;4.57;;;3.17;;
10945;SDS011;5525;42.648;23.368;2023-02-03T05:48:10;3.95;;;3.42;;
10945;SDS011;5525;42.648;23.368;2023-02-03T05:50:38;6.35;;;4.60;;
10945;SDS011;5525;42.648;23.368;2023-02-03T05:53:05;3.63;;;3.22;;
10945;SDS011;5525;42.648;23.368;2023-02-03T05:55:33;5.00;;;3.90;;
10945;SDS011;5525;42.648;23.368;2023-02-03T05:58:00;5.88;;;3.90;;
10945;SDS011;5525;42.648;23.368;2023-02-03T06:00:29;5.00;;;3.40;;
10945;SDS011;5525;42.648;23.368;2023-02-03T06:03:00;5.80;;;3.45;;
10945;SDS011;5525;42.648;23.368;2023-02-03T06:05:28;3.47;;;3.17;;
10945;SDS011;5525;42.648;23.368;2023-02-03T06:07:59;4.63;;;3.85;;
10945;SDS011;5525;42.648;23.368;2023-02-03T06:10:26;3.10;;;2.75;;
10945;SDS011;5525;42.648;23.368;2023-02-03T06:12:53;3.70;;;3.35;;
10945;SDS011;5525;42.648;23.368;2023-02-03T06:15:20;4.30;;;3.90;;
10945;SDS011;5525;42.648;23.368;2023-02-03T06:17:49;5.03;;;3.75;;
10945;SDS011;5525;42.648;23.368;2023-02-03T06:20:17;4.18;;;3.78;;
10945;SDS011;5525;42.648;23.368;2023-02-03T06:22:45;4.43;;;4.03;;
10945;SDS011;5525;42.648;23.368;2023-02-03T06:25:12;5.35;;;3.90;;
10945;SDS011;5525;42.648;23.368;2023-02-03T06:27:39;4.55;;;3.38;;
10945;SDS011;5525;42.648;23.368;2023-02-03T06:30:07;6.47;;;3.75;;
10945;SDS011;5525;42.648;23.368;2023-02-03T06:32:35;4.43;;;3.47;;
10945;SDS011;5525;42.648;23.368;2023-02-03T06:35:04;4.00;;;3.60;;
10945;SDS011;5525;42.648;23.368;2023-02-03T06:37:31;3.10;;;2.85;;
10945;SDS011;5525;42.648;23.368;2023-02-03T06:39:59;3.88;;;2.90;;
10945;SDS011;5525;42.648;23.368;2023-02-03T06:42:27;3.20;;;2.90;;
10945;SDS011;5525;42.648;23.368;2023-02-03T06:44:55;5.38;;;2.75;;
10945;SDS011;5525;42.648;23.368;2023-02-03T06:47:21;4.50;;;2.35;;
10945;SDS011;5525;42.648;23.368;2023-02-03T06:49:48;4.65;;;3.13;;
10945;SDS011;5525;42.648;23.368;2023-02-03T06:52:18;3.33;;;2.95;;
10945;SDS011;5525;42.648;23.368;2023-02-03T06:54:45;4.82;;;2.70;;
10945;SDS011;5525;42.648;23.368;2023-02-03T06:57:13;5.53;;;3.58;;
10945;SDS011;5525;42.648;23.368;2023-02-03T06:59:41;2.90;;;2.50;;
10945;SDS011;5525;42.648;23.368;2023-02-03T07:02:08;3.75;;;2.60;;
10945;SDS011;5525;42.648;23.368;2023-02-03T07:04:36;2.63;;;2.42;;
10945;SDS011;5525;42.648;23.368;2023-02-03T07:07:04;2.30;;;2.10;;
10945;SDS011;5525;42.648;23.368;2023-02-03T07:09:33;2.53;;;2.33;;
10945;SDS011;5525;42.648;23.368;2023-02-03T07:12:00;2.53;;;1.90;;
10945;SDS011;5525;42.648;23.368;2023-02-03T07:14:27;3.90;;;2.55;;
10945;SDS011;5525;42.648;23.368;2023-02-03T07:16:55;3.35;;;2.38;;
10945;SDS011;5525;42.648;23.368;2023-02-03T07:19:22;6.55;;;3.35;;
10945;SDS011;5525;42.648;23.368;2023-02-03T07:21:50;3.53;;;2.67;;
10945;SDS011;5525;42.648;23.368;2023-02-03T07:26:56;4.25;;;2.90;;
10945;SDS011;5525;42.648;23.368;2023-02-03T07:29:23;3.88;;;2.47;;
10945;SDS011;5525;42.648;23.368;2023-02-03T07:31:50;2.85;;;2.33;;
10945;SDS011;5525;42.648;23.368;2023-02-03T07:34:17;6.15;;;3.20;;
10945;SDS011;5525;42.648;23.368;2023-02-03T07:36:44;3.95;;;3.17;;
10945;SDS011;5525;42.648;23.368;2023-02-03T07:39:11;3.85;;;3.00;;
10945;SDS011;5525;42.648;23.368;2023-02-03T07:41:38;7.45;;;2.83;;
10945;SDS011;5525;42.648;23.368;2023-02-03T07:44:06;5.10;;;3.03;;
10945;SDS011;5525;42.648;23.368;2023-02-03T07:46:34;6.35;;;2.80;;
10945;SDS011;5525;42.648;23.368;2023-02-03T07:49:03;3.78;;;2.35;;
10945;SDS011;5525;42.648;23.368;2023-02-03T07:51:31;8.13;;;3.30;;
10945;SDS011;5525;42.648;23.368;2023-02-03T07:53:58;3.40;;;2.72;;
10945;SDS011;5525;42.648;23.368;2023-02-03T07:56:25;3.40;;;2.20;;
10945;SDS011;5525;42.648;23.368;2023-02-03T07:58:52;6.03;;;2.83;;
10945;SDS011;5525;42.648;23.368;2023-02-03T08:01:20;2.00;;;1.77;;
10945;SDS011;5525;42.648;23.368;2023-02-03T08:03:47;2.20;;;1.92;;
10945;SDS011;5525;42.648;23.368;2023-02-03T08:06:15;3.38;;;2.70;;
10945;SDS011;5525;42.648;23.368;2023-02-03T08:08:42;3.10;;;2.20;;
10945;SDS011;5525;42.648;23.368;2023-02-03T08:11:14;3.60;;;2.08;;
10945;SDS011;5525;42.648;23.368;2023-02-03T08:13:42;4.25;;;1.77;;
10945;SDS011;5525;42.648;23.368;2023-02-03T08:16:13;3.10;;;2.53;;
10945;SDS011;5525;42.648;23.368;2023-02-03T08:18:41;3.53;;;2.28;;
10945;SDS011;5525;42.648;23.368;2023-02-03T08:21:07;3.47;;;2.60;;
10945;SDS011;5525;42.648;23.368;2023-02-03T08:23:34;3.30;;;2.08;;
10945;SDS011;5525;42.648;23.368;2023-02-03T08:26:01;3.38;;;2.63;;
10945;SDS011;5525;42.648;23.368;2023-02-03T08:28:28;5.30;;;2.28;;
10945;SDS011;5525;42.648;23.368;2023-02-03T08:30:55;2.90;;;2.10;;
10945;SDS011;5525;42.648;23.368;2023-02-03T08:33:22;3.20;;;1.90;;
10945;SDS011;5525;42.648;23.368;2023-02-03T08:35:50;3.78;;;2.90;;
10945;SDS011;5525;42.648;23.368;2023-02-03T08:38:17;3.33;;;1.90;;
10945;SDS011;5525;42.648;23.368;2023-02-03T08:40:45;2.58;;;2.10;;
10945;SDS011;5525;42.648;23.368;2023-02-03T08:43:12;2.58;;;1.70;;
10945;SDS011;5525;42.648;23.368;2023-02-03T08:45:39;3.22;;;2.28;;
10945;SDS011;5525;42.648;23.368;2023-02-03T08:48:07;6.45;;;2.50;;
10945;SDS011;5525;42.648;23.368;2023-02-03T08:50:33;2.75;;;2.03;;
10945;SDS011;5525;42.648;23.368;2023-02-03T08:53:01;2.72;;;1.95;;
10945;SDS011;5525;42.648;23.368;2023-02-03T08:55:28;4.05;;;2.33;;
10945;SDS011;5525;42.648;23.368;2023-02-03T08:57:55;2.28;;;2.03;;
10945;SDS011;5525;42.648;23.368;2023-02-03T09:00:22;2.13;;;1.80;;
10945;SDS011;5525;42.648;23.368;2023-02-03T09:02:49;2.53;;;1.77;;
10945;SDS011;5525;42.648;23.368;2023-02-03T09:05:15;4.00;;;2.10;;
10945;SDS011;5525;42.648;23.368;2023-02-03T09:07:42;3.03;;;1.98;;
10945;SDS011;5525;42.648;23.368;2023-02-03T09:10:11;2.45;;;1.83;;
10945;SDS011;5525;42.648;23.368;2023-02-03T09:12:38;2.70;;;2.13;;
10945;SDS011;5525;42.648;23.368;2023-02-03T09:15:04;4.15;;;2.10;;
10945;SDS011;5525;42.648;23.368;2023-02-03T09:17:32;3.53;;;2.42;;
10945;SDS011;5525;42.648;23.368;2023-02-03T09:19:58;2.45;;;2.03;;
10945;SDS011;5525;42.648;23.368;2023-02-03T09:22:25;1.92;;;1.60;;
10945;SDS011;5525;42.648;23.368;2023-02-03T09:24:52;3.15;;;1.40;;
10945;SDS011;5525;42.648;23.368;2023-02-03T09:27:20;1.65;;;1.55;;
10945;SDS011;5525;42.648;23.368;2023-02-03T09:29:46;2.28;;;1.90;;
10945;SDS011;5525;42.648;23.368;2023-02-03T09:32:13;4.70;;;2.30;;
10945;SDS011;5525;42.648;23.368;2023-02-03T09:34:40;3.22;;;2.40;;
10945;SDS011;5525;42.648;23.368;2023-02-03T09:37:07;6.28;;;2.30;;
10945;SDS011;5525;42.648;23.368;2023-02-03T09:39:34;2.65;;;1.85;;
10945;SDS011;5525;42.648;23.368;2023-02-03T09:42:08;2.38;;;1.48;;
10945;SDS011;5525;42.648;23.368;2023-02-03T09:45:04;3.97;;;1.52;;
10945;SDS011;5525;42.648;23.368;2023-02-03T09:47:38;2.13;;;1.50;;
10945;SDS011;5525;42.648;23.368;2023-02-03T09:50:10;2.03;;;1.83;;
10945;SDS011;5525;42.648;23.368;2023-02-03T09:52:40;1.65;;;1.55;;
10945;SDS011;5525;42.648;23.368;2023-02-03T09:55:10;1.90;;;1.70;;
10945;SDS011;5525;42.648;23.368;2023-02-03T09:57:51;3.70;;;1.80;;
10945;SDS011;5525;42.648;23.368;2023-02-03T10:00:22;5.80;;;1.92;;
10945;SDS011;5525;42.648;23.368;2023-02-03T10:02:54;2.47;;;1.55;;
10945;SDS011;5525;42.648;23.368;2023-02-03T10:05:27;5.13;;;1.70;;
10945;SDS011;5525;42.648;23.368;2023-02-03T10:08:02;3.13;;;2.13;;
10945;SDS011;5525;42.648;23.368;2023-02-03T10:10:38;2.17;;;1.75;;
10945;SDS011;5525;42.648;23.368;2023-02-03T10:13:20;2.38;;;1.88;;
10945;SDS011;5525;42.648;23.368;2023-02-03T10:18:35;1.42;;;1.33;;
10945;SDS011;5525;42.648;23.368;2023-02-03T10:21:09;3.28;;;1.80;;
10945;SDS011;5525;42.648;23.368;2023-02-03T10:23:41;2.35;;;1.60;;
10945;SDS011;5525;42.648;23.368;2023-02-03T10:26:13;1.90;;;1.70;;
10945;SDS011;5525;42.648;23.368;2023-02-03T10:28:46;9.60;;;2.25;;
10945;SDS011;5525;42.648;23.368;2023-02-03T10:31:20;3.55;;;1.73;;
10945;SDS011;5525;42.648;23.368;2023-02-03T10:33:48;1.85;;;1.50;;
10945;SDS011;5525;42.648;23.368;2023-02-03T10:36:22;4.43;;;1.98;;
10945;SDS011;5525;42.648;23.368;2023-02-03T10:39:01;1.70;;;1.58;;
10945;SDS011;5525;42.648;23.368;2023-02-03T10:41:35;1.77;;;1.67;;
10945;SDS011;5525;42.648;23.368;2023-02-03T10:44:04;2.55;;;2.10;;
10945;SDS011;5525;42.648;23.368;2023-02-03T10:46:33;4.07;;;2.08;;
10945;SDS011;5525;42.648;23.368;2023-02-03T10:49:03;2.80;;;2.60;;
10945;SDS011;5525;42.648;23.368;2023-02-03T10:51:33;1.90;;;1.70;;
10945;SDS011;5525;42.648;23.368;2023-02-03T10:54:03;1.92;;;1.60;;
10945;SDS011;5525;42.648;23.368;2023-02-03T10:56:30;4.07;;;2.33;;
10945;SDS011;5525;42.648;23.368;2023-02-03T10:59:01;2.85;;;2.20;;
10945;SDS011;5525;42.648;23.368;2023-02-03T11:01:39;2.38;;;2.17;;
10945;SDS011;5525;42.648;23.368;2023-02-03T11:04:18;3.13;;;2.20;;
10945;SDS011;5525;42.648;23.368;2023-02-03T11:06:55;3.75;;;2.13;;
10945;SDS011;5525;42.648;23.368;2023-02-03T11:09:28;3.35;;;1.50;;
10945;SDS011;5525;42.648;23.368;2023-02-03T11:12:05;2.50;;;1.70;;
10945;SDS011;5525;42.648;23.368;2023-02-03T11:14:37;2.10;;;1.58;;
10945;SDS011;5525;42.648;23.368;2023-02-03T11:17:07;2.00;;;1.70;;
10945;SDS011;5525;42.648;23.368;2023-02-03T11:19:35;2.30;;;1.73;;
10945;SDS011;5525;42.648;23.368;2023-02-03T11:22:04;1.92;;;1.73;;
10945;SDS011;5525;42.648;23.368;2023-02-03T11:24:32;2.75;;;2.08;;
10945;SDS011;5525;42.648;23.368;2023-02-03T11:27:04;2.45;;;1.40;;
10945;SDS011;5525;42.648;23.368;2023-02-03T11:29:35;4.50;;;2.13;;
10945;SDS011;5525;42.648;23.368;2023-02-03T11:32:05;1.73;;;1.60;;
10945;SDS011;5525;42.648;23.368;2023-02-03T11:34:45;1.67;;;1.20;;
10945;SDS011;5525;42.648;23.368;2023-02-03T11:37:24;3.60;;;1.63;;
10945;SDS011;5525;42.648;23.368;2023-02-03T11:39:54;1.77;;;1.23;;
10945;SDS011;5525;42.648;23.368;2023-02-03T11:42:22;1.38;;;1.27;;
10945;SDS011;5525;42.648;23.368;2023-02-03T11:44:50;3.15;;;1.80;;
10945;SDS011;5525;42.648;23.368;2023-02-03T11:47:18;1.90;;;1.50;;
10945;SDS011;5525;42.648;23.368;2023-02-03T11:50:02;2.72;;;1.42;;
10945;SDS011;5525;42.648;23.368;2023-02-03T11:52:42;3.53;;;1.80;;
10945;SDS011;5525;42.648;23.368;2023-02-03T11:55:19;2.10;;;1.45;;
10945;SDS011;5525;42.648;23.368;2023-02-03T11:57:58;3.47;;;1.70;;
10945;SDS011;5525;42.648;23.368;2023-02-03T12:00:41;1.70;;;1.60;;
10945;SDS011;5525;42.648;23.368;2023-02-03T12:06:17;5.10;;;1.80;;
10945;SDS011;5525;42.648;23.368;2023-02-03T12:09:07;2.80;;;1.80;;
10945;SDS011;5525;42.648;23.368;2023-02-03T12:11:50;2.40;;;1.95;;
10945;SDS011;5525;42.648;23.368;2023-02-03T12:14:34;1.70;;;1.60;;
10945;SDS011;5525;42.648;23.368;2023-02-03T12:17:18;2.53;;;1.75;;
10945;SDS011;5525;42.648;23.368;2023-02-03T12:20:14;1.67;;;1.38;;
10945;SDS011;5525;42.648;23.368;2023-02-03T12:22:50;2.63;;;1.60;;
10945;SDS011;5525;42.648;23.368;2023-02-03T12:25:31;2.53;;;1.77;;
10945;SDS011;5525;42.648;23.368;2023-02-03T12:28:11;1.75;;;1.30;;
10945;SDS011;5525;42.648;23.368;2023-02-03T12:30:48;1.52;;;1.30;;
10945;SDS011;5525;42.648;23.368;2023-02-03T12:33:23;6.28;;;1.52;;
10945;SDS011;5525;42.648;23.368;2023-02-03T12:36:02;1.75;;;1.17;;
10945;SDS011;5525;42.648;23.368;2023-02-03T12:38:37;3.45;;;1.40;;
10945;SDS011;5525;42.648;23.368;2023-02-03T12:41:10;1.45;;;1.35;;
10945;SDS011;5525;42.648;23.368;2023-02-03T12:43:43;2.38;;;1.50;;
10945;SDS011;5525;42.648;23.368;2023-02-03T12:46:15;2.45;;;1.73;;
10945;SDS011;5525;42.648;23.368;2023-02-03T12:48:49;1.50;;;1.20;;
10945;SDS011;5525;42.648;23.368;2023-02-03T12:51:27;1.67;;;1.50;;
10945;SDS011;5525;42.648;23.368;2023-02-03T12:54:02;2.50;;;1.50;;
10945;SDS011;5525;42.648;23.368;2023-02-03T12:56:38;5.28;;;2.00;;
10945;SDS011;5525;42.648;23.368;2023-02-03T12:59:10;1.83;;;1.70;;
10945;SDS011;5525;42.648;23.368;2023-02-03T13:01:42;3.53;;;2.03;;
10945;SDS011;5525;42.648;23.368;2023-02-03T13:04:17;3.03;;;1.65;;
10945;SDS011;5525;42.648;23.368;2023-02-03T13:06:53;2.15;;;1.55;;
10945;SDS011;5525;42.648;23.368;2023-02-03T13:09:30;2.53;;;1.65;;
10945;SDS011;5525;42.648;23.368;2023-02-03T13:12:04;2.63;;;1.90;;
10945;SDS011;5525;42.648;23.368;2023-02-03T13:14:35;1.90;;;1.50;;
10945;SDS011;5525;42.648;23.368;2023-02-03T13:17:07;1.95;;;1.50;;
10945;SDS011;5525;42.648;23.368;2023-02-03T13:19:42;3.00;;;2.20;;
10945;SDS011;5525;42.648;23.368;2023-02-03T13:22:17;3.95;;;1.67;;
10945;SDS011;5525;42.648;23.368;2023-02-03T13:24:48;1.98;;;1.75;;
10945;SDS011;5525;42.648;23.368;2023-02-03T13:27:24;1.73;;;1.63;;
10945;SDS011;5525;42.648;23.368;2023-02-03T13:30:30;4.40;;;2.13;;
10945;SDS011;5525;42.648;23.368;2023-02-03T13:33:17;3.33;;;2.55;;
10945;SDS011;5525;42.648;23.368;2023-02-03T13:36:09;2.05;;;1.70;;
10945;SDS011;5525;42.648;23.368;2023-02-03T13:39:00;2.78;;;1.80;;
10945;SDS011;5525;42.648;23.368;2023-02-03T13:41:52;2.75;;;2.05;;
10945;SDS011;5525;42.648;23.368;2023-02-03T13:44:22;3.95;;;2.50;;
10945;SDS011;5525;42.648;23.368;2023-02-03T13:46:53;3.97;;;2.35;;
10945;SDS011;5525;42.648;23.368;2023-02-03T13:49:22;5.10;;;2.95;;
10945;SDS011;5525;42.648;23.368;2023-02-03T13:51:52;3.67;;;2.53;;
10945;SDS011;5525;42.648;23.368;2023-02-03T13:54:22;2.65;;;2.20;;
10945;SDS011;5525;42.648;23.368;2023-02-03T13:56:53;2.85;;;2.00;;
10945;SDS011;5525;42.648;23.368;2023-02-03T13:59:29;3.15;;;2.50;;
10945;SDS011;5525;42.648;23.368;2023-02-03T14:23:27;3.63;;;2.38;;
10945;SDS011;5525;42.648;23.368;2023-02-03T14:26:00;4.03;;;2.63;;
10945;SDS011;5525;42.648;23.368;2023-02-03T14:28:30;4.70;;;2.70;;
10945;SDS011;5525;42.648;23.368;2023-02-03T14:31:06;3.53;;;2.70;;
10945;SDS011;5525;42.648;23.368;2023-02-03T14:33:56;8.25;;;3.38;;
10945;SDS011;5525;42.648;23.368;2023-02-03T14:36:41;5.55;;;3.05;;
10945;SDS011;5525;42.648;23.368;2023-02-03T14:42:21;4.85;;;2.92;;
10945;SDS011;5525;42.648;23.368;2023-02-03T14:45:02;4.25;;;3.10;;
10945;SDS011;5525;42.648;23.368;2023-02-03T14:47:45;8.45;;;2.83;;
10945;SDS011;5525;42.648;23.368;2023-02-03T14:50:23;7.47;;;3.30;;
10945;SDS011;5525;42.648;23.368;2023-02-03T14:53:08;4.68;;;2.65;;
10945;SDS011;5525;42.648;23.368;2023-02-03T14:56:08;4.75;;;2.40;;
10945;SDS011;5525;42.648;23.368;2023-02-03T14:58:43;2.45;;;2.22;;
10945;SDS011;5525;42.648;23.368;2023-02-03T15:01:25;3.63;;;2.63;;
10945;SDS011;5525;42.648;23.368;2023-02-03T15:04:21;4.30;;;2.50;;
10945;SDS011;5525;42.648;23.368;2023-02-03T15:06:50;3.92;;;2.45;;
10945;SDS011;5525;42.648;23.368;2023-02-03T15:09:26;5.40;;;2.78;;
10945;SDS011;5525;42.648;23.368;2023-02-03T15:11:57;3.75;;;2.50;;
10945;SDS011;5525;42.648;23.368;2023-02-03T15:14:25;3.47;;;2.85;;
10945;SDS011;5525;42.648;23.368;2023-02-03T15:16:57;4.05;;;2.90;;
10945;SDS011;5525;42.648;23.368;2023-02-03T15:19:27;5.15;;;3.13;;
10945;SDS011;5525;42.648;23.368;2023-02-03T15:21:57;3.70;;;2.72;;
10945;SDS011;5525;42.648;23.368;2023-02-03T15:24:23;4.80;;;2.53;;
10945;SDS011;5525;42.648;23.368;2023-02-03T15:26:51;4.80;;;2.70;;
10945;SDS011;5525;42.648;23.368;2023-02-03T15:29:23;3.60;;;2.17;;
10945;SDS011;5525;42.648;23.368;2023-02-03T15:31:55;5.93;;;2.92;;
10945;SDS011;5525;42.648;23.368;2023-02-03T15:34:32;3.65;;;3.05;;
10945;SDS011;5525;42.648;23.368;2023-02-03T15:37:05;4.45;;;2.70;;
10945;SDS011;5525;42.648;23.368;2023-02-03T15:39:38;5.05;;;2.60;;
10945;SDS011;5525;42.648;23.368;2023-02-03T15:42:12;3.40;;;3.05;;
10945;SDS011;5525;42.648;23.368;2023-02-03T15:44:46;3.83;;;2.45;;
10945;SDS011;5525;42.648;23.368;2023-02-03T15:47:21;6.47;;;3.08;;
10945;SDS011;5525;42.648;23.368;2023-02-03T15:49:59;5.85;;;3.72;;
10945;SDS011;5525;42.648;23.368;2023-02-03T15:52:32;6.55;;;3.13;;
10945;SDS011;5525;42.648;23.368;2023-02-03T15:55:07;6.90;;;2.63;;
10945;SDS011;5525;42.648;23.368;2023-02-03T15:57:42;5.82;;;2.90;;
10945;SDS011;5525;42.648;23.368;2023-02-03T16:00:21;5.20;;;2.85;;